createdAt,value
2022-09-07T00:00:07.900Z,16.02
2022-09-07T00:05:09.991Z,17.65
2022-09-07T00:10:11.779Z,16.35
2022-09-07T00:15:13.770Z,15.90
2022-09-07T00:20:17.086Z,17.27
2022-09-07T00:25:18.879Z,15.55
2022-09-07T00:30:20.683Z,14.65
2022-09-07T00:35:22.504Z,14.77
2022-09-07T00:40:24.353Z,14.77
2022-09-07T00:45:26.192Z,15.98
2022-09-07T00:50:33.852Z,16.60
2022-09-07T00:55:37.655Z,16.20
2022-09-07T01:00:44.834Z,16.23
2022-09-07T01:05:53.775Z,16.17
2022-09-07T01:10:58.050Z,15.32
2022-09-07T01:16:13.155Z,14.65
2022-09-07T01:21:22.452Z,14.25
2022-09-07T01:26:54.546Z,16.30
2022-09-07T01:31:56.317Z,16.83
2022-09-07T01:37:01.000Z,15.32
2022-09-07T01:42:18.988Z,16.70
2022-09-07T01:47:25.821Z,15.85
2022-09-07T01:52:33.573Z,15.82
2022-09-07T01:57:43.690Z,15.80
2022-09-07T02:03:04.689Z,16.45
2022-09-07T02:08:12.966Z,15.93
2022-09-07T02:13:21.731Z,17.25
2022-09-07T02:18:27.269Z,15.98
2022-09-07T02:23:33.206Z,16.67
2022-09-07T02:28:36.720Z,15.60
2022-09-07T02:33:38.895Z,16.88
2022-09-07T02:38:40.770Z,18.33
2022-09-07T02:43:42.589Z,15.93
2022-09-07T02:49:04.061Z,16.38
2022-09-07T02:54:05.857Z,16.02
2022-09-07T02:59:17.558Z,16.10
2022-09-07T03:04:29.025Z,18.58
2022-09-07T03:09:37.535Z,16.77
2022-09-07T03:14:41.699Z,20.13
2022-09-07T03:19:43.532Z,18.75
2022-09-07T03:24:45.705Z,17.33
2022-09-07T03:29:47.482Z,18.38
2022-09-07T03:34:49.283Z,16.80
2022-09-07T03:39:51.128Z,18.38
2022-09-07T03:44:53.020Z,18.83
2022-09-07T03:49:54.845Z,19.02
2022-09-07T03:54:56.658Z,17.25
2022-09-07T03:59:58.514Z,16.30
2022-09-07T04:05:00.313Z,20.17
2022-09-07T04:10:02.381Z,16.27
2022-09-07T04:15:04.473Z,18.42
2022-09-07T04:20:06.929Z,17.02
2022-09-07T04:25:08.971Z,18.05
2022-09-07T04:30:11.444Z,15.93
2022-09-07T04:35:13.930Z,17.05
2022-09-07T04:40:15.871Z,16.58
2022-09-07T04:45:17.734Z,16.83
2022-09-07T04:50:19.545Z,17.60
2022-09-07T04:55:21.785Z,17.85
2022-09-07T05:00:23.706Z,15.73
2022-09-07T05:05:25.632Z,16.60
2022-09-07T05:10:27.495Z,17.30
2022-09-07T05:15:30.639Z,16.02
2022-09-07T05:20:32.844Z,16.65
2022-09-07T05:25:34.945Z,17.45
2022-09-07T05:35:59.718Z,15.73
2022-09-07T05:41:02.096Z,17.02
2022-09-07T05:46:04.201Z,17.05
2022-09-07T05:51:07.085Z,18.60
2022-09-07T05:56:09.619Z,18.50
2022-09-07T06:01:12.618Z,18.92
2022-09-07T06:06:17.571Z,18.23
2022-09-07T06:11:22.288Z,20.38
2022-09-07T06:16:24.153Z,19.80
2022-09-07T06:21:26.069Z,19.88
2022-09-07T06:26:27.867Z,18.80
2022-09-07T06:31:30.046Z,19.40
2022-09-07T06:36:31.886Z,25.92
2022-09-07T06:52:04.259Z,19.70
2022-09-07T06:57:09.262Z,18.55
2022-09-07T07:02:15.102Z,21.75
2022-09-07T07:07:17.037Z,20.27
2022-09-07T07:17:19.537Z,25.15
2022-09-07T07:22:45.555Z,21.08
2022-09-07T07:27:45.999Z,17.60
2022-09-07T07:32:48.439Z,16.27
2022-09-07T07:43:15.802Z,13.57
2022-09-07T07:48:17.617Z,13.63
2022-09-07T07:58:45.401Z,14.70
2022-09-07T08:03:47.374Z,14.20
2022-09-07T08:08:49.217Z,14.50
2022-09-07T08:13:51.250Z,14.18
2022-09-07T08:18:53.761Z,15.98
2022-09-07T08:23:55.668Z,15.57
2022-09-07T08:28:58.778Z,14.25
2022-09-07T08:34:00.547Z,14.32
2022-09-07T08:39:02.625Z,13.93
2022-09-07T08:44:18.491Z,14.52
2022-09-07T08:49:30.278Z,13.93
2022-09-07T08:54:33.191Z,13.88
2022-09-07T08:59:42.995Z,14.82
2022-09-07T09:10:09.667Z,14.68
2022-09-07T09:15:21.311Z,14.57
2022-09-07T09:20:47.721Z,15.32
2022-09-07T09:25:59.586Z,15.73
2022-09-07T09:31:01.496Z,14.00
2022-09-07T09:36:03.315Z,13.90
2022-09-07T09:41:23.779Z,14.85
2022-09-07T09:46:27.315Z,13.60
2022-09-07T09:56:54.904Z,14.05
2022-09-07T10:07:27.417Z,13.65
2022-09-07T10:12:32.879Z,13.32
2022-09-07T10:17:47.666Z,13.85
2022-09-07T10:22:52.174Z,13.77
2022-09-07T10:28:08.435Z,13.48
2022-09-07T10:33:33.721Z,14.60
2022-09-07T10:38:44.868Z,13.95
2022-09-07T10:43:50.154Z,13.45
2022-09-07T10:49:40.009Z,13.95
2022-09-07T10:54:53.402Z,14.98
2022-09-07T11:00:16.190Z,13.95
2022-09-07T11:05:20.611Z,14.57
2022-09-07T11:10:42.029Z,14.10
2022-09-07T11:15:56.817Z,14.05
2022-09-07T11:21:01.778Z,13.18
2022-09-07T11:26:12.440Z,13.52
2022-09-07T11:31:23.324Z,14.20
2022-09-07T11:36:28.936Z,14.05
2022-09-07T11:41:36.996Z,13.95
2022-09-07T11:46:48.966Z,13.65
2022-09-07T11:51:53.560Z,15.00
2022-09-07T11:57:15.820Z,14.98
2022-09-07T12:02:59.782Z,14.70
2022-09-07T12:08:10.966Z,14.85
2022-09-07T12:13:34.857Z,15.73
2022-09-07T12:19:07.434Z,16.27
2022-09-07T12:24:43.166Z,15.15
2022-09-07T12:29:45.723Z,15.65
2022-09-07T12:34:53.588Z,14.90
2022-09-07T12:40:29.227Z,14.65
2022-09-07T12:45:30.956Z,14.68
2022-09-07T12:50:55.534Z,14.45
2022-09-07T12:56:17.482Z,15.02
2022-09-07T13:01:28.472Z,14.30
2022-09-07T13:07:05.599Z,13.07
2022-09-07T13:12:57.910Z,13.32
2022-09-07T13:17:59.739Z,12.02
2022-09-07T13:23:21.544Z,12.32
2022-09-07T13:28:28.790Z,12.02
2022-09-07T13:33:30.345Z,12.48
2022-09-07T13:38:36.396Z,12.25
2022-09-07T13:43:38.089Z,13.07
2022-09-07T13:49:01.124Z,12.70
2022-09-07T13:54:36.993Z,12.95
2022-09-07T13:59:42.467Z,13.35
2022-09-07T14:04:49.189Z,13.27
2022-09-07T14:10:20.645Z,11.93
2022-09-07T14:15:34.581Z,11.75
2022-09-07T14:20:43.757Z,12.52
2022-09-07T14:31:16.394Z,12.15
2022-09-07T14:41:43.273Z,13.20
2022-09-07T14:46:50.582Z,13.18
2022-09-07T14:51:55.325Z,11.93
2022-09-07T14:57:10.536Z,12.68
2022-09-07T15:02:18.238Z,13.73
2022-09-07T15:07:37.283Z,14.17
2022-09-07T15:12:42.213Z,13.35
2022-09-07T15:17:44.782Z,13.70
2022-09-07T15:22:46.443Z,12.80
2022-09-07T15:27:48.023Z,14.07
2022-09-07T15:32:49.607Z,13.40
2022-09-07T15:38:59.428Z,12.93
2022-09-07T15:43:20.317Z,13.35
2022-09-07T15:48:25.179Z,14.20
2022-09-07T15:58:53.137Z,13.68
2022-09-07T16:03:57.003Z,13.45
2022-09-07T16:08:58.626Z,13.50
2022-09-07T16:14:02.380Z,13.07
2022-09-07T16:19:07.307Z,12.88
2022-09-07T16:24:10.354Z,13.43
2022-09-07T16:29:12.159Z,13.68
2022-09-07T16:34:18.283Z,14.18
2022-09-07T16:39:20.349Z,13.35
2022-09-07T16:44:21.878Z,12.75
2022-09-07T16:49:23.534Z,12.98
2022-09-07T16:54:25.032Z,13.50
2022-09-07T16:59:26.815Z,18.10
2022-09-07T17:04:29.075Z,21.70
2022-09-07T17:09:30.713Z,26.90
2022-09-07T17:14:32.229Z,24.15
2022-09-07T17:19:34.456Z,19.45
2022-09-07T17:24:36.179Z,14.00
2022-09-07T17:29:37.937Z,13.18
2022-09-07T17:34:39.475Z,13.10
2022-09-07T17:39:41.221Z,12.63
2022-09-07T17:44:42.893Z,11.93
2022-09-07T17:49:44.982Z,12.65
2022-09-07T17:54:47.299Z,12.55
2022-09-07T18:05:11.518Z,12.73
2022-09-07T18:10:13.232Z,11.70
2022-09-07T18:15:14.900Z,12.38
2022-09-07T18:20:17.004Z,12.75
2022-09-07T18:25:18.602Z,11.18
2022-09-07T18:30:20.253Z,11.07
2022-09-07T18:35:22.514Z,11.73
2022-09-07T18:40:24.099Z,11.77
2022-09-07T18:45:27.509Z,12.20
2022-09-07T18:50:29.452Z,12.83
2022-09-07T18:55:32.232Z,15.77
2022-09-07T19:00:33.862Z,13.90
2022-09-07T19:05:51.419Z,14.80
2022-09-07T19:10:54.157Z,15.98
2022-09-07T19:16:07.452Z,15.25
2022-09-07T19:21:14.744Z,16.77
2022-09-07T19:26:18.283Z,18.02
2022-09-07T19:31:19.980Z,15.32
2022-09-07T19:36:21.887Z,15.32
2022-09-07T19:41:23.774Z,17.83
2022-09-07T19:46:25.770Z,16.77
2022-09-07T19:51:27.747Z,17.20
2022-09-07T19:56:29.245Z,16.38
2022-09-07T20:01:31.142Z,16.70
2022-09-07T20:06:34.278Z,16.48
2022-09-07T20:11:36.382Z,16.60
2022-09-07T20:16:39.912Z,17.13
2022-09-07T20:21:42.049Z,16.00
2022-09-07T20:26:43.544Z,17.23
2022-09-07T20:31:45.780Z,16.08
2022-09-07T20:36:52.321Z,16.95
2022-09-07T20:41:54.021Z,17.75
2022-09-07T20:46:55.679Z,19.50
2022-09-07T20:51:57.306Z,18.65
2022-09-07T20:57:03.266Z,18.50
2022-09-07T21:02:05.646Z,18.83
2022-09-07T21:07:07.200Z,18.63
2022-09-07T21:12:08.721Z,19.08
2022-09-07T21:17:10.286Z,18.10
2022-09-07T21:22:11.900Z,20.25
2022-09-07T21:27:13.409Z,18.85
2022-09-07T21:32:14.920Z,18.27
2022-09-07T21:37:16.768Z,18.60
2022-09-07T21:42:18.283Z,18.80
2022-09-07T21:47:19.832Z,22.27
2022-09-07T21:52:21.340Z,20.05
2022-09-07T21:57:23.439Z,22.10
2022-09-07T22:02:25.054Z,20.77
2022-09-07T22:07:26.606Z,19.23
2022-09-07T22:12:28.619Z,20.13
2022-09-07T22:17:44.474Z,20.42
2022-09-07T22:22:47.789Z,18.00
2022-09-07T22:27:49.636Z,19.42
2022-09-07T22:32:51.920Z,18.15
2022-09-07T22:37:53.496Z,17.52
2022-09-07T22:42:55.067Z,20.42
2022-09-07T22:47:57.345Z,18.13
2022-09-07T22:52:59.202Z,22.20
2022-09-07T22:58:00.706Z,27.27
2022-09-07T23:03:03.768Z,19.20
2022-09-07T23:08:05.814Z,20.02
2022-09-07T23:13:09.032Z,19.38
2022-09-07T23:18:19.340Z,21.10
2022-09-07T23:23:20.924Z,20.38
2022-09-07T23:28:22.555Z,22.83
2022-09-07T23:33:26.122Z,21.85
2022-09-07T23:38:28.444Z,19.33
2022-09-07T23:43:31.360Z,17.83
2022-09-07T23:48:33.044Z,18.75
2022-09-07T23:53:35.045Z,21.23
2022-09-07T23:58:36.714Z,19.40
